sensor_id;sensor_type;location;lat;lon;timestamp;pressure;altitude;pressure_sealevel;temperature;humidity
66396;BME280;53207;51.378;-1.342;2023-05-18T00:01:20;101437.89;;;24.76;34.55
66396;BME280;53207;51.378;-1.342;2023-05-18T00:03:47;101436.06;;;24.70;34.58
66396;BME280;53207;51.378;-1.342;2023-05-18T00:06:14;101434.50;;;24.68;34.57
66396;BME280;53207;51.378;-1.342;2023-05-18T00:08:42;101432.40;;;24.65;34.60
66396;BME280;53207;51.378;-1.342;2023-05-18T00:11:09;101434.90;;;24.62;34.58
66396;BME280;53207;51.378;-1.342;2023-05-18T00:13:36;101438.84;;;24.42;34.55
66396;BME280;53207;51.378;-1.342;2023-05-18T00:16:04;101439.90;;;24.63;34.51
66396;BME280;53207;51.378;-1.342;2023-05-18T00:18:31;101441.01;;;24.61;34.46
66396;BME280;53207;51.378;-1.342;2023-05-18T00:20:59;101438.74;;;24.59;34.48
66396;BME280;53207;51.378;-1.342;2023-05-18T00:23:26;101436.77;;;24.56;34.50
66396;BME280;53207;51.378;-1.342;2023-05-18T00:25:53;101436.83;;;24.51;34.49
66396;BME280;53207;51.378;-1.342;2023-05-18T00:28:20;101434.58;;;24.51;34.48
66396;BME280;53207;51.378;-1.342;2023-05-18T00:30:48;101435.26;;;24.56;34.37
66396;BME280;53207;51.378;-1.342;2023-05-18T00:33:15;101431.69;;;24.54;34.39
66396;BME280;53207;51.378;-1.342;2023-05-18T00:35:42;101432.28;;;24.36;34.28
66396;BME280;53207;51.378;-1.342;2023-05-18T00:38:10;101434.71;;;24.53;34.33
66396;BME280;53207;51.378;-1.342;2023-05-18T00:40:38;101434.04;;;24.52;34.35
66396;BME280;53207;51.378;-1.342;2023-05-18T00:43:05;101436.14;;;24.53;34.30
66396;BME280;53207;51.378;-1.342;2023-05-18T00:45:32;101436.85;;;24.52;34.29
66396;BME280;53207;51.378;-1.342;2023-05-18T00:47:59;101442.10;;;24.33;34.28
66396;BME280;53207;51.378;-1.342;2023-05-18T00:50:27;101443.42;;;24.48;34.35
66396;BME280;53207;51.378;-1.342;2023-05-18T00:52:54;101446.45;;;24.44;34.37
66396;BME280;53207;51.378;-1.342;2023-05-18T00:55:21;101442.77;;;24.47;34.26
66396;BME280;53207;51.378;-1.342;2023-05-18T00:57:48;101442.01;;;24.39;34.35
66396;BME280;53207;51.378;-1.342;2023-05-18T01:00:16;101439.19;;;24.39;34.31
66396;BME280;53207;51.378;-1.342;2023-05-18T01:02:43;101438.02;;;24.38;34.32
66396;BME280;53207;51.378;-1.342;2023-05-18T01:05:11;101438.50;;;24.11;34.34
66396;BME280;53207;51.378;-1.342;2023-05-18T01:07:39;101438.62;;;24.11;34.32
66396;BME280;53207;51.378;-1.342;2023-05-18T01:10:07;101437.96;;;24.34;34.32
66396;BME280;53207;51.378;-1.342;2023-05-18T01:12:39;101444.15;;;24.35;34.26
66396;BME280;53207;51.378;-1.342;2023-05-18T01:15:09;101445.00;;;24.36;34.22
66396;BME280;53207;51.378;-1.342;2023-05-18T01:17:45;101445.83;;;24.30;34.25
66396;BME280;53207;51.378;-1.342;2023-05-18T01:20:21;101446.45;;;24.32;34.28
66396;BME280;53207;51.378;-1.342;2023-05-18T01:23:11;101444.61;;;24.12;34.22
66396;BME280;53207;51.378;-1.342;2023-05-18T01:25:46;101444.39;;;24.32;34.18
66396;BME280;53207;51.378;-1.342;2023-05-18T01:28:18;101444.82;;;24.28;34.21
66396;BME280;53207;51.378;-1.342;2023-05-18T01:30:47;101445.72;;;24.27;34.22
66396;BME280;53207;51.378;-1.342;2023-05-18T01:33:14;101443.19;;;24.28;34.13
66396;BME280;53207;51.378;-1.342;2023-05-18T01:35:41;101443.48;;;24.24;34.18
66396;BME280;53207;51.378;-1.342;2023-05-18T01:38:08;101441.14;;;24.25;34.11
66396;BME280;53207;51.378;-1.342;2023-05-18T01:40:39;101442.42;;;24.26;34.08
66396;BME280;53207;51.378;-1.342;2023-05-18T01:43:11;101441.68;;;24.22;34.12
66396;BME280;53207;51.378;-1.342;2023-05-18T01:45:43;101439.24;;;24.19;34.08
66396;BME280;53207;51.378;-1.342;2023-05-18T01:48:17;101441.07;;;23.96;34.07
66396;BME280;53207;51.378;-1.342;2023-05-18T01:50:47;101440.99;;;24.20;34.01
66396;BME280;53207;51.378;-1.342;2023-05-18T01:53:22;101443.21;;;24.14;34.07
66396;BME280;53207;51.378;-1.342;2023-05-18T01:55:53;101445.07;;;23.90;34.07
66396;BME280;53207;51.378;-1.342;2023-05-18T01:58:21;101446.01;;;24.17;33.99
66396;BME280;53207;51.378;-1.342;2023-05-18T02:00:50;101444.71;;;24.08;34.09
66396;BME280;53207;51.378;-1.342;2023-05-18T02:03:18;101448.42;;;24.02;34.13
66396;BME280;53207;51.378;-1.342;2023-05-18T02:05:45;101447.85;;;24.04;34.08
66396;BME280;53207;51.378;-1.342;2023-05-18T02:08:12;101446.00;;;24.06;34.05
66396;BME280;53207;51.378;-1.342;2023-05-18T02:10:39;101443.00;;;24.03;34.05
66396;BME280;53207;51.378;-1.342;2023-05-18T02:13:07;101443.75;;;23.98;34.11
66396;BME280;53207;51.378;-1.342;2023-05-18T02:15:34;101441.67;;;23.96;34.11
66396;BME280;53207;51.378;-1.342;2023-05-18T02:18:01;101440.39;;;23.98;34.07
66396;BME280;53207;51.378;-1.342;2023-05-18T02:20:29;101443.69;;;23.92;34.11
66396;BME280;53207;51.378;-1.342;2023-05-18T02:22:57;101444.28;;;23.99;33.99
66396;BME280;53207;51.378;-1.342;2023-05-18T02:25:24;101447.74;;;23.94;34.03
66396;BME280;53207;51.378;-1.342;2023-05-18T02:27:51;101450.84;;;23.89;34.10
66396;BME280;53207;51.378;-1.342;2023-05-18T02:30:19;101447.83;;;23.90;34.05
66396;BME280;53207;51.378;-1.342;2023-05-18T02:32:47;101448.19;;;23.88;34.07
66396;BME280;53207;51.378;-1.342;2023-05-18T02:35:15;101450.22;;;23.90;34.01
66396;BME280;53207;51.378;-1.342;2023-05-18T02:37:42;101447.06;;;23.92;33.96
66396;BME280;53207;51.378;-1.342;2023-05-18T02:40:10;101442.70;;;23.89;34.00
66396;BME280;53207;51.378;-1.342;2023-05-18T02:42:37;101444.27;;;23.86;34.04
66396;BME280;53207;51.378;-1.342;2023-05-18T02:45:06;101442.57;;;24.41;33.95
66396;BME280;53207;51.378;-1.342;2023-05-18T02:47:33;101441.13;;;23.90;33.95
66396;BME280;53207;51.378;-1.342;2023-05-18T02:50:00;101441.36;;;23.87;33.95
66396;BME280;53207;51.378;-1.342;2023-05-18T02:52:27;101443.01;;;23.85;33.98
66396;BME280;53207;51.378;-1.342;2023-05-18T02:54:54;101445.44;;;23.90;33.92
66396;BME280;53207;51.378;-1.342;2023-05-18T02:57:22;101445.28;;;24.11;33.95
66396;BME280;53207;51.378;-1.342;2023-05-18T02:59:49;101447.63;;;23.82;33.98
66396;BME280;53207;51.378;-1.342;2023-05-18T03:02:16;101446.93;;;23.82;33.95
66396;BME280;53207;51.378;-1.342;2023-05-18T03:04:44;101447.03;;;24.08;33.95
66396;BME280;53207;51.378;-1.342;2023-05-18T03:07:11;101449.12;;;23.77;33.98
66396;BME280;53207;51.378;-1.342;2023-05-18T03:09:38;101448.27;;;24.04;33.98
66396;BME280;53207;51.378;-1.342;2023-05-18T03:12:06;101443.44;;;23.74;33.99
66396;BME280;53207;51.378;-1.342;2023-05-18T03:14:34;101443.15;;;23.75;33.94
66396;BME280;53207;51.378;-1.342;2023-05-18T03:17:01;101441.05;;;23.75;33.93
66396;BME280;53207;51.378;-1.342;2023-05-18T03:19:28;101440.40;;;23.72;33.94
66396;BME280;53207;51.378;-1.342;2023-05-18T03:21:55;101438.53;;;23.70;33.95
66396;BME280;53207;51.378;-1.342;2023-05-18T03:24:23;101439.51;;;23.70;33.95
66396;BME280;53207;51.378;-1.342;2023-05-18T03:26:50;101438.55;;;23.96;33.93
66396;BME280;53207;51.378;-1.342;2023-05-18T03:29:17;101437.24;;;23.91;33.97
66396;BME280;53207;51.378;-1.342;2023-05-18T03:31:45;101438.16;;;23.64;33.95
66396;BME280;53207;51.378;-1.342;2023-05-18T03:34:12;101438.73;;;23.70;33.88
66396;BME280;53207;51.378;-1.342;2023-05-18T03:36:40;101438.31;;;23.66;33.89
66396;BME280;53207;51.378;-1.342;2023-05-18T03:39:07;101437.10;;;24.11;33.92
66396;BME280;53207;51.378;-1.342;2023-05-18T03:41:34;101437.36;;;23.55;33.97
66396;BME280;53207;51.378;-1.342;2023-05-18T03:44:02;101434.77;;;23.84;33.94
66396;BME280;53207;51.378;-1.342;2023-05-18T03:46:29;101432.67;;;23.55;33.97
66396;BME280;53207;51.378;-1.342;2023-05-18T03:48:56;101434.48;;;24.00;34.00
66396;BME280;53207;51.378;-1.342;2023-05-18T03:51:24;101435.56;;;23.84;33.90
66396;BME280;53207;51.378;-1.342;2023-05-18T03:53:51;101437.21;;;23.52;33.96
66396;BME280;53207;51.378;-1.342;2023-05-18T03:56:18;101440.17;;;23.56;33.88
66396;BME280;53207;51.378;-1.342;2023-05-18T03:58:45;101440.73;;;23.59;33.83
66396;BME280;53207;51.378;-1.342;2023-05-18T04:01:13;101439.70;;;23.50;33.93
66396;BME280;53207;51.378;-1.342;2023-05-18T04:03:40;101439.51;;;23.50;33.93
66396;BME280;53207;51.378;-1.342;2023-05-18T04:06:07;101435.81;;;23.79;33.85
66396;BME280;53207;51.378;-1.342;2023-05-18T04:08:34;101434.95;;;23.75;33.90
66396;BME280;53207;51.378;-1.342;2023-05-18T04:11:02;101435.13;;;23.56;33.78
66396;BME280;53207;51.378;-1.342;2023-05-18T04:13:29;101433.13;;;23.48;33.87
66396;BME280;53207;51.378;-1.342;2023-05-18T04:15:56;101432.66;;;23.46;33.87
66396;BME280;53207;51.378;-1.342;2023-05-18T04:18:23;101432.56;;;23.72;33.86
66396;BME280;53207;51.378;-1.342;2023-05-18T04:20:51;101434.72;;;23.72;33.83
66396;BME280;53207;51.378;-1.342;2023-05-18T04:23:18;101437.86;;;23.91;33.86
66396;BME280;53207;51.378;-1.342;2023-05-18T04:25:45;101436.74;;;23.43;33.82
66396;BME280;53207;51.378;-1.342;2023-05-18T04:28:12;101436.15;;;23.68;33.83
66396;BME280;53207;51.378;-1.342;2023-05-18T04:30:40;101435.51;;;23.39;33.83
66396;BME280;53207;51.378;-1.342;2023-05-18T04:33:07;101436.80;;;23.65;33.83
66396;BME280;53207;51.378;-1.342;2023-05-18T04:35:34;101438.40;;;23.40;33.78
66396;BME280;53207;51.378;-1.342;2023-05-18T04:38:02;101440.73;;;23.85;33.81
66396;BME280;53207;51.378;-1.342;2023-05-18T04:40:29;101439.90;;;23.35;33.81
66396;BME280;53207;51.378;-1.342;2023-05-18T04:42:56;101440.69;;;23.59;33.81
66396;BME280;53207;51.378;-1.342;2023-05-18T04:45:23;101443.14;;;23.80;33.82
66396;BME280;53207;51.378;-1.342;2023-05-18T04:47:51;101443.14;;;23.81;33.78
66396;BME280;53207;51.378;-1.342;2023-05-18T04:50:18;101446.64;;;23.29;33.80
66396;BME280;53207;51.378;-1.342;2023-05-18T04:52:47;101445.71;;;23.28;33.80
66396;BME280;53207;51.378;-1.342;2023-05-18T04:55:15;101446.00;;;23.55;33.77
66396;BME280;53207;51.378;-1.342;2023-05-18T04:57:42;101444.79;;;23.78;33.75
66396;BME280;53207;51.378;-1.342;2023-05-18T05:00:10;101444.21;;;23.78;33.74
66396;BME280;53207;51.378;-1.342;2023-05-18T05:02:38;101443.57;;;23.50;33.79
66396;BME280;53207;51.378;-1.342;2023-05-18T05:05:05;101447.40;;;23.48;33.82
66396;BME280;53207;51.378;-1.342;2023-05-18T05:07:33;101449.55;;;23.22;33.79
66396;BME280;53207;51.378;-1.342;2023-05-18T05:10:00;101449.47;;;23.71;33.76
66396;BME280;53207;51.378;-1.342;2023-05-18T05:12:27;101449.21;;;23.69;33.78
66396;BME280;53207;51.378;-1.342;2023-05-18T05:14:55;101447.84;;;23.17;33.81
66396;BME280;53207;51.378;-1.342;2023-05-18T05:17:22;101447.17;;;23.68;33.78
66396;BME280;53207;51.378;-1.342;2023-05-18T05:19:49;101446.81;;;23.61;33.86
66396;BME280;53207;51.378;-1.342;2023-05-18T05:22:17;101446.81;;;23.65;33.79
66396;BME280;53207;51.378;-1.342;2023-05-18T05:24:44;101445.19;;;23.65;33.81
66396;BME280;53207;51.378;-1.342;2023-05-18T05:27:11;101444.67;;;23.45;33.76
66396;BME280;53207;51.378;-1.342;2023-05-18T05:29:38;101448.70;;;23.67;33.77
66396;BME280;53207;51.378;-1.342;2023-05-18T05:32:06;101449.47;;;23.47;33.73
66396;BME280;53207;51.378;-1.342;2023-05-18T05:34:34;101451.80;;;23.68;33.73
66396;BME280;53207;51.378;-1.342;2023-05-18T05:37:01;101449.99;;;23.64;33.87
66396;BME280;53207;51.378;-1.342;2023-05-18T05:39:28;101450.85;;;23.42;33.82
66396;BME280;53207;51.378;-1.342;2023-05-18T05:41:56;101453.55;;;23.43;33.87
66396;BME280;53207;51.378;-1.342;2023-05-18T05:44:23;101457.77;;;23.72;33.78
66396;BME280;53207;51.378;-1.342;2023-05-18T05:46:51;101457.37;;;23.43;33.95
66396;BME280;53207;51.378;-1.342;2023-05-18T05:49:17;101458.72;;;23.71;33.92
66396;BME280;53207;51.378;-1.342;2023-05-18T05:51:45;101459.78;;;23.47;34.01
66396;BME280;53207;51.378;-1.342;2023-05-18T05:54:12;101458.27;;;23.77;33.91
66396;BME280;53207;51.378;-1.342;2023-05-18T05:56:39;101456.05;;;23.70;34.10
66396;BME280;53207;51.378;-1.342;2023-05-18T05:59:07;101459.06;;;23.50;34.18
66396;BME280;53207;51.378;-1.342;2023-05-18T06:01:34;101460.90;;;23.55;34.07
66396;BME280;53207;51.378;-1.342;2023-05-18T06:04:01;101459.70;;;23.73;34.24
66396;BME280;53207;51.378;-1.342;2023-05-18T06:06:28;101461.28;;;23.28;34.29
66396;BME280;53207;51.378;-1.342;2023-05-18T06:08:56;101462.98;;;23.82;34.27
66396;BME280;53207;51.378;-1.342;2023-05-18T06:11:23;101464.74;;;23.30;34.40
66396;BME280;53207;51.378;-1.342;2023-05-18T06:13:51;101465.50;;;23.32;34.49
66396;BME280;53207;51.378;-1.342;2023-05-18T06:16:17;101463.86;;;23.28;34.70
66396;BME280;53207;51.378;-1.342;2023-05-18T06:18:45;101464.05;;;23.62;34.49
66396;BME280;53207;51.378;-1.342;2023-05-18T06:21:12;101464.11;;;23.91;34.31
66396;BME280;53207;51.378;-1.342;2023-05-18T06:23:39;101463.08;;;23.43;34.43
66396;BME280;53207;51.378;-1.342;2023-05-18T06:26:06;101465.52;;;23.42;34.64
66396;BME280;53207;51.378;-1.342;2023-05-18T06:28:34;101466.10;;;23.78;34.27
66396;BME280;53207;51.378;-1.342;2023-05-18T06:31:01;101466.79;;;23.51;34.37
66396;BME280;53207;51.378;-1.342;2023-05-18T06:33:28;101472.67;;;24.03;34.42
66396;BME280;53207;51.378;-1.342;2023-05-18T06:35:55;101475.39;;;23.86;34.14
66396;BME280;53207;51.378;-1.342;2023-05-18T06:38:22;101472.74;;;23.57;34.39
66396;BME280;53207;51.378;-1.342;2023-05-18T06:40:50;101474.26;;;23.65;34.31
66396;BME280;53207;51.378;-1.342;2023-05-18T06:43:17;101471.24;;;23.70;34.07
66396;BME280;53207;51.378;-1.342;2023-05-18T06:45:45;101467.19;;;24.15;34.33
66396;BME280;53207;51.378;-1.342;2023-05-18T06:48:12;101465.80;;;23.69;34.32
66396;BME280;53207;51.378;-1.342;2023-05-18T06:50:39;101466.55;;;23.95;34.27
66396;BME280;53207;51.378;-1.342;2023-05-18T06:53:07;101467.28;;;23.98;34.16
66396;BME280;53207;51.378;-1.342;2023-05-18T06:55:34;101467.51;;;23.72;34.30
66396;BME280;53207;51.378;-1.342;2023-05-18T06:58:01;101470.39;;;23.71;34.21
66396;BME280;53207;51.378;-1.342;2023-05-18T07:00:28;101470.58;;;23.69;34.24
66396;BME280;53207;51.378;-1.342;2023-05-18T07:02:56;101472.08;;;24.23;34.25
66396;BME280;53207;51.378;-1.342;2023-05-18T07:05:23;101474.47;;;24.00;34.41
66396;BME280;53207;51.378;-1.342;2023-05-18T07:07:51;101472.95;;;23.72;34.39
66396;BME280;53207;51.378;-1.342;2023-05-18T07:10:18;101477.34;;;23.80;34.13
66396;BME280;53207;51.378;-1.342;2023-05-18T07:12:46;101477.85;;;24.00;34.36
66396;BME280;53207;51.378;-1.342;2023-05-18T07:15:13;101477.66;;;23.74;34.31
66396;BME280;53207;51.378;-1.342;2023-05-18T07:17:41;101478.72;;;23.73;34.37
66396;BME280;53207;51.378;-1.342;2023-05-18T07:20:08;101481.02;;;23.80;34.19
66396;BME280;53207;51.378;-1.342;2023-05-18T07:22:36;101483.16;;;23.77;34.21
66396;BME280;53207;51.378;-1.342;2023-05-18T07:25:04;101483.57;;;23.84;34.08
66396;BME280;53207;51.378;-1.342;2023-05-18T07:27:31;101486.23;;;23.88;33.99
66396;BME280;53207;51.378;-1.342;2023-05-18T07:29:58;101486.51;;;24.11;34.07
66396;BME280;53207;51.378;-1.342;2023-05-18T07:32:25;101489.40;;;23.80;34.18
66396;BME280;53207;51.378;-1.342;2023-05-18T07:34:53;101493.62;;;24.16;33.97
66396;BME280;53207;51.378;-1.342;2023-05-18T07:37:20;101493.29;;;23.90;33.91
66396;BME280;53207;51.378;-1.342;2023-05-18T07:39:47;101493.08;;;24.16;33.98
66396;BME280;53207;51.378;-1.342;2023-05-18T07:42:14;101494.70;;;23.94;33.93
66396;BME280;53207;51.378;-1.342;2023-05-18T07:44:42;101493.14;;;23.99;33.81
66396;BME280;53207;51.378;-1.342;2023-05-18T07:47:09;101492.40;;;23.98;33.83
66396;BME280;53207;51.378;-1.342;2023-05-18T07:49:36;101493.92;;;24.02;33.82
66396;BME280;53207;51.378;-1.342;2023-05-18T07:52:05;101493.83;;;24.54;33.74
66396;BME280;53207;51.378;-1.342;2023-05-18T07:54:33;101492.53;;;24.04;33.86
66396;BME280;53207;51.378;-1.342;2023-05-18T07:57:00;101492.92;;;24.06;33.82
66396;BME280;53207;51.378;-1.342;2023-05-18T07:59:27;101492.01;;;24.04;33.86
66396;BME280;53207;51.378;-1.342;2023-05-18T08:01:54;101491.95;;;24.33;33.84
66396;BME280;53207;51.378;-1.342;2023-05-18T08:04:22;101489.03;;;24.09;33.77
66396;BME280;53207;51.378;-1.342;2023-05-18T08:06:49;101490.37;;;24.14;33.74
66396;BME280;53207;51.378;-1.342;2023-05-18T08:09:16;101490.53;;;24.13;33.80
66396;BME280;53207;51.378;-1.342;2023-05-18T08:11:43;101490.48;;;24.13;33.80
66396;BME280;53207;51.378;-1.342;2023-05-18T08:14:11;101486.86;;;24.20;33.71
66396;BME280;53207;51.378;-1.342;2023-05-18T08:16:38;101486.66;;;24.21;33.71
66396;BME280;53207;51.378;-1.342;2023-05-18T08:19:05;101485.96;;;24.18;33.77
66396;BME280;53207;51.378;-1.342;2023-05-18T08:21:33;101485.23;;;24.23;33.73
66396;BME280;53207;51.378;-1.342;2023-05-18T08:24:01;101484.28;;;24.26;33.66
66396;BME280;53207;51.378;-1.342;2023-05-18T08:26:29;101484.01;;;24.22;33.72
66396;BME280;53207;51.378;-1.342;2023-05-18T08:28:56;101482.75;;;24.26;33.68
66396;BME280;53207;51.378;-1.342;2023-05-18T08:31:23;101478.00;;;24.30;33.66
66396;BME280;53207;51.378;-1.342;2023-05-18T08:33:51;101476.13;;;24.33;33.65
66396;BME280;53207;51.378;-1.342;2023-05-18T08:36:18;101479.94;;;24.61;33.66
66396;BME280;53207;51.378;-1.342;2023-05-18T08:38:45;101477.36;;;24.34;33.68
66396;BME280;53207;51.378;-1.342;2023-05-18T08:41:19;101476.97;;;24.33;33.71
66396;BME280;53207;51.378;-1.342;2023-05-18T08:43:55;101478.35;;;24.41;33.60
66396;BME280;53207;51.378;-1.342;2023-05-18T08:46:28;101479.78;;;24.42;33.60
66396;BME280;53207;51.378;-1.342;2023-05-18T08:48:58;101478.75;;;24.24;33.52
66396;BME280;53207;51.378;-1.342;2023-05-18T08:51:28;101479.11;;;24.45;33.59
66396;BME280;53207;51.378;-1.342;2023-05-18T08:53:59;101478.08;;;24.45;33.60
66396;BME280;53207;51.378;-1.342;2023-05-18T08:56:30;101478.34;;;24.48;33.54
66396;BME280;53207;51.378;-1.342;2023-05-18T08:58:58;101477.78;;;24.51;33.49
66396;BME280;53207;51.378;-1.342;2023-05-18T09:01:26;101477.52;;;24.53;33.47
66396;BME280;53207;51.378;-1.342;2023-05-18T09:03:55;101474.74;;;24.58;33.42
66396;BME280;53207;51.378;-1.342;2023-05-18T09:06:23;101473.43;;;24.58;33.43
66396;BME280;53207;51.378;-1.342;2023-05-18T09:08:52;101472.51;;;24.58;33.45
66396;BME280;53207;51.378;-1.342;2023-05-18T09:11:21;101470.83;;;24.39;33.41
66396;BME280;53207;51.378;-1.342;2023-05-18T09:13:49;101469.36;;;24.61;33.40
66396;BME280;53207;51.378;-1.342;2023-05-18T09:16:16;101472.04;;;24.61;33.40
66396;BME280;53207;51.378;-1.342;2023-05-18T09:18:43;101470.84;;;24.69;33.32
66396;BME280;53207;51.378;-1.342;2023-05-18T09:21:10;101472.01;;;24.48;33.32
66396;BME280;53207;51.378;-1.342;2023-05-18T09:23:38;101469.66;;;24.70;33.30
66396;BME280;53207;51.378;-1.342;2023-05-18T09:26:06;101466.10;;;24.73;33.27
66396;BME280;53207;51.378;-1.342;2023-05-18T09:28:35;101466.44;;;24.74;33.25
66396;BME280;53207;51.378;-1.342;2023-05-18T09:31:03;101467.78;;;24.75;33.24
66396;BME280;53207;51.378;-1.342;2023-05-18T09:33:33;101466.28;;;24.75;33.24
66396;BME280;53207;51.378;-1.342;2023-05-18T09:36:03;101465.12;;;24.77;33.20
66396;BME280;53207;51.378;-1.342;2023-05-18T09:38:35;101464.79;;;24.59;33.10
66396;BME280;53207;51.378;-1.342;2023-05-18T09:41:03;101467.63;;;24.78;33.10
66396;BME280;53207;51.378;-1.342;2023-05-18T09:43:35;101467.55;;;24.81;33.05
66396;BME280;53207;51.378;-1.342;2023-05-18T09:46:06;101464.13;;;24.64;32.98
66396;BME280;53207;51.378;-1.342;2023-05-18T09:48:35;101464.53;;;24.65;32.95
66396;BME280;53207;51.378;-1.342;2023-05-18T09:51:04;101462.83;;;24.38;32.95
66396;BME280;53207;51.378;-1.342;2023-05-18T09:53:34;101465.17;;;24.93;32.87
66396;BME280;53207;51.378;-1.342;2023-05-18T09:56:04;101466.10;;;24.70;32.86
66396;BME280;53207;51.378;-1.342;2023-05-18T09:58:32;101463.65;;;24.01;32.87
66396;BME280;53207;51.378;-1.342;2023-05-18T10:01:00;101463.48;;;24.99;32.81
66396;BME280;53207;51.378;-1.342;2023-05-18T10:03:32;101461.06;;;24.82;32.76
66396;BME280;53207;51.378;-1.342;2023-05-18T10:06:03;101459.12;;;25.04;32.76
66396;BME280;53207;51.378;-1.342;2023-05-18T10:08:30;101456.21;;;24.81;32.76
66396;BME280;53207;51.378;-1.342;2023-05-18T10:10:57;101458.57;;;25.03;32.76
66396;BME280;53207;51.378;-1.342;2023-05-18T10:13:26;101459.58;;;24.78;32.78
66396;BME280;53207;51.378;-1.342;2023-05-18T10:15:55;101462.35;;;25.00;32.78
66396;BME280;53207;51.378;-1.342;2023-05-18T10:18:24;101458.34;;;24.79;32.73
66396;BME280;53207;51.378;-1.342;2023-05-18T10:20:53;101459.17;;;24.80;32.64
66396;BME280;53207;51.378;-1.342;2023-05-18T10:23:22;101458.16;;;24.78;32.67
66396;BME280;53207;51.378;-1.342;2023-05-18T10:25:51;101457.25;;;24.84;32.60
66396;BME280;53207;51.378;-1.342;2023-05-18T10:28:21;101453.80;;;24.84;32.61
66396;BME280;53207;51.378;-1.342;2023-05-18T10:30:49;101454.81;;;24.57;32.61
66396;BME280;53207;51.378;-1.342;2023-05-18T10:33:17;101454.62;;;24.78;32.66
66396;BME280;53207;51.378;-1.342;2023-05-18T10:35:46;101455.98;;;24.81;32.64
66396;BME280;53207;51.378;-1.342;2023-05-18T10:38:18;101453.32;;;24.81;32.64
66396;BME280;53207;51.378;-1.342;2023-05-18T10:40:47;101454.15;;;24.55;32.61
66396;BME280;53207;51.378;-1.342;2023-05-18T10:43:15;101459.38;;;24.80;32.64
66396;BME280;53207;51.378;-1.342;2023-05-18T10:45:46;101457.32;;;25.04;32.60
66396;BME280;53207;51.378;-1.342;2023-05-18T10:48:14;101457.99;;;24.85;32.57
66396;BME280;53207;51.378;-1.342;2023-05-18T10:50:42;101461.69;;;25.03;32.59
66396;BME280;53207;51.378;-1.342;2023-05-18T10:53:11;101459.60;;;25.08;32.53
66396;BME280;53207;51.378;-1.342;2023-05-18T10:55:38;101458.90;;;25.11;32.50
66396;BME280;53207;51.378;-1.342;2023-05-18T10:58:09;101458.93;;;25.11;32.50
66396;BME280;53207;51.378;-1.342;2023-05-18T11:00:39;101460.19;;;24.89;32.52
66396;BME280;53207;51.378;-1.342;2023-05-18T11:03:09;101462.57;;;25.12;32.50
66396;BME280;53207;51.378;-1.342;2023-05-18T11:05:37;101459.70;;;24.69;32.46
66396;BME280;53207;51.378;-1.342;2023-05-18T11:08:04;101459.22;;;25.02;32.39
66396;BME280;53207;51.378;-1.342;2023-05-18T11:10:34;101454.02;;;25.23;32.39
66396;BME280;53207;51.378;-1.342;2023-05-18T11:13:01;101453.56;;;24.79;32.30
66396;BME280;53207;51.378;-1.342;2023-05-18T11:16:35;101452.79;;;25.32;32.28
66396;BME280;53207;51.378;-1.342;2023-05-18T11:19:05;101454.69;;;24.81;32.26
66396;BME280;53207;51.378;-1.342;2023-05-18T11:21:52;101454.39;;;24.86;32.21
66396;BME280;53207;51.378;-1.342;2023-05-18T11:24:27;101452.92;;;25.13;32.24
66396;BME280;53207;51.378;-1.342;2023-05-18T11:26:56;101451.43;;;24.81;32.29
66396;BME280;53207;51.378;-1.342;2023-05-18T11:29:30;101452.82;;;25.04;32.30
66396;BME280;53207;51.378;-1.342;2023-05-18T11:31:58;101451.07;;;25.28;32.26
66396;BME280;53207;51.378;-1.342;2023-05-18T11:34:58;101449.92;;;24.77;32.31
66396;BME280;53207;51.378;-1.342;2023-05-18T11:38:06;101449.77;;;24.74;32.32
66396;BME280;53207;51.378;-1.342;2023-05-18T11:40:50;101444.62;;;25.04;32.30
66396;BME280;53207;51.378;-1.342;2023-05-18T11:43:20;101442.62;;;25.11;32.22
66396;BME280;53207;51.378;-1.342;2023-05-18T11:45:57;101439.84;;;25.40;32.15
66396;BME280;53207;51.378;-1.342;2023-05-18T11:48:25;101437.42;;;24.93;32.18
66396;BME280;53207;51.378;-1.342;2023-05-18T11:50:54;101437.17;;;25.23;32.11
66396;BME280;53207;51.378;-1.342;2023-05-18T11:53:22;101436.62;;;25.01;32.06
66396;BME280;53207;51.378;-1.342;2023-05-18T11:55:51;101434.08;;;24.97;32.07
66396;BME280;53207;51.378;-1.342;2023-05-18T11:58:18;101434.13;;;25.26;32.06
66396;BME280;53207;51.378;-1.342;2023-05-18T12:00:46;101433.14;;;25.03;32.02
66396;BME280;53207;51.378;-1.342;2023-05-18T12:03:14;101432.23;;;25.08;31.97
66396;BME280;53207;51.378;-1.342;2023-05-18T12:05:42;101428.36;;;25.09;31.93
66396;BME280;53207;51.378;-1.342;2023-05-18T12:08:10;101427.30;;;25.13;31.91
66396;BME280;53207;51.378;-1.342;2023-05-18T12:10:37;101428.94;;;25.63;31.88
66396;BME280;53207;51.378;-1.342;2023-05-18T12:13:05;101423.93;;;25.43;31.86
66396;BME280;53207;51.378;-1.342;2023-05-18T12:15:32;101423.95;;;25.11;31.92
66396;BME280;53207;51.378;-1.342;2023-05-18T12:18:01;101419.25;;;25.10;31.94
66396;BME280;53207;51.378;-1.342;2023-05-18T12:20:28;101415.63;;;25.16;31.89
66396;BME280;53207;51.378;-1.342;2023-05-18T12:22:56;101415.64;;;25.44;31.87
66396;BME280;53207;51.378;-1.342;2023-05-18T12:25:25;101412.47;;;25.62;31.91
66396;BME280;53207;51.378;-1.342;2023-05-18T12:27:53;101412.08;;;25.39;31.91
66396;BME280;53207;51.378;-1.342;2023-05-18T12:30:22;101412.01;;;25.09;31.95
66396;BME280;53207;51.378;-1.342;2023-05-18T12:32:51;101408.63;;;25.39;31.91
66396;BME280;53207;51.378;-1.342;2023-05-18T12:35:21;101409.69;;;25.09;31.94
66396;BME280;53207;51.378;-1.342;2023-05-18T12:37:49;101405.17;;;25.11;31.93
66396;BME280;53207;51.378;-1.342;2023-05-18T12:40:17;101401.10;;;25.06;31.97
66396;BME280;53207;51.378;-1.342;2023-05-18T12:42:52;101399.77;;;25.07;31.98
66396;BME280;53207;51.378;-1.342;2023-05-18T12:45:22;101395.46;;;25.34;31.97
66396;BME280;53207;51.378;-1.342;2023-05-18T12:47:49;101392.77;;;25.08;31.96